Terminal Aerodrome Forecast
Issued by NWS

Home | Current Version | Previous Version | Text Only | Print | Product List | Glossary On
Versions: 1 2 3 4 5 6 7 8 9 10 11 12 13 14 15 16 17 18 19 20 21 22 23 24 25 26 27 28 29 30 31 32 33 34 35 36 37 38
000
FTUS45 KSLC 211611 AAA
TAFLGU
TAF AMD
KLGU 211611Z 2116/2212 VRB04KT P6SM -RA SCT015 BKN035
     FM211800 20016G24KT P6SM VCSH SCT010 BKN035
     FM212000 31016G24KT P6SM VCSH SCT025 BKN040=

USA.gov is the U.S. government's official web portal to all federal, state and local government web resources and services.